createdAt,value
2018-02-20T00:00:07.162Z,1014.97
2018-02-20T00:01:58.915Z,1014.95
2018-02-20T00:02:58.841Z,1015.02
2018-02-20T00:04:50.608Z,1015.03
2018-02-20T00:05:50.537Z,1015.02
2018-02-20T00:07:42.298Z,1014.98
2018-02-20T00:08:42.188Z,1014.97
2018-02-20T00:10:33.958Z,1014.96
2018-02-20T00:11:33.865Z,1015.00
2018-02-20T00:13:25.691Z,1014.94
2018-02-20T00:14:25.543Z,1014.95
2018-02-20T00:16:17.286Z,1014.95
2018-02-20T00:17:17.201Z,1014.96
2018-02-20T00:19:08.942Z,1014.96
2018-02-20T00:20:08.888Z,1014.88
2018-02-20T00:22:00.628Z,1014.96
2018-02-20T00:23:00.548Z,1014.97
2018-02-20T00:24:52.342Z,1014.97
2018-02-20T00:25:52.314Z,1014.97
2018-02-20T00:27:44.076Z,1014.98
2018-02-20T00:28:44.012Z,1014.96
2018-02-20T00:30:36.394Z,1014.95
2018-02-20T00:31:35.649Z,1014.93
2018-02-20T00:33:27.745Z,1014.95
2018-02-20T00:34:27.337Z,1014.96
2018-02-20T00:36:19.590Z,1014.95
2018-02-20T00:37:19.526Z,1014.94
2018-02-20T00:39:11.332Z,1014.95
2018-02-20T00:40:11.254Z,1014.95
2018-02-20T00:42:03.082Z,1014.96
2018-02-20T00:43:03.018Z,1014.93
2018-02-20T00:44:54.764Z,1014.95
2018-02-20T00:45:54.733Z,1014.90
2018-02-20T00:47:46.461Z,1014.95
2018-02-20T00:48:46.383Z,1014.96
2018-02-20T00:50:38.180Z,1014.95
2018-02-20T00:51:38.094Z,1014.95
2018-02-20T00:53:29.884Z,1014.94
2018-02-20T00:54:29.798Z,1014.95
2018-02-20T00:56:22.169Z,1014.94
2018-02-20T00:57:21.597Z,1014.93
2018-02-20T00:59:13.280Z,1014.92
2018-02-20T01:00:13.195Z,1014.88
2018-02-20T01:02:05.089Z,1014.92
2018-02-20T01:03:04.887Z,1014.88
2018-02-20T01:04:56.650Z,1014.90
2018-02-20T01:05:56.564Z,1014.88
2018-02-20T01:07:48.358Z,1014.86
2018-02-20T01:08:48.272Z,1014.88
2018-02-20T01:10:40.114Z,1014.85
2018-02-20T01:11:40.023Z,1014.89
2018-02-20T01:13:31.906Z,1014.86
2018-02-20T01:14:31.848Z,1014.86
2018-02-20T01:16:23.615Z,1014.86
2018-02-20T01:17:23.531Z,1014.83
2018-02-20T01:19:15.285Z,1014.83
2018-02-20T01:20:15.205Z,1014.86
2018-02-20T01:22:07.138Z,1014.90
2018-02-20T01:23:06.986Z,1014.87
2018-02-20T01:24:58.751Z,1014.89
2018-02-20T01:25:58.667Z,1014.87
2018-02-20T01:27:50.396Z,1014.85
2018-02-20T01:28:50.327Z,1014.87
2018-02-20T01:30:42.145Z,1014.90
2018-02-20T01:31:42.022Z,1014.89
2018-02-20T01:33:33.751Z,1014.92
2018-02-20T01:34:33.684Z,1014.92
2018-02-20T01:36:25.435Z,1014.91
2018-02-20T01:37:25.364Z,1014.89
2018-02-20T01:39:17.103Z,1014.84
2018-02-20T01:40:17.027Z,1014.83
2018-02-20T01:42:08.811Z,1014.91
2018-02-20T01:43:08.729Z,1014.85
2018-02-20T01:45:00.461Z,1014.86
2018-02-20T01:46:00.377Z,1014.88
2018-02-20T01:47:52.149Z,1014.86
2018-02-20T01:48:52.085Z,1014.88
2018-02-20T01:50:43.944Z,1014.85
2018-02-20T01:51:43.899Z,1014.90
2018-02-20T01:53:35.677Z,1014.86
2018-02-20T01:54:35.549Z,1014.87
2018-02-20T01:56:27.309Z,1014.86
2018-02-20T01:57:27.222Z,1014.87
2018-02-20T01:59:19.139Z,1014.85
2018-02-20T02:00:19.001Z,1014.88
2018-02-20T02:02:10.758Z,1014.86
2018-02-20T02:03:10.674Z,1014.87
2018-02-20T02:05:02.506Z,1014.90
2018-02-20T02:06:02.406Z,1014.86
2018-02-20T02:07:54.171Z,1014.86
2018-02-20T02:08:54.104Z,1014.85
2018-02-20T02:10:45.864Z,1014.86
2018-02-20T02:11:45.815Z,1014.82
2018-02-20T02:13:37.630Z,1014.87
2018-02-20T02:14:37.626Z,1014.88
2018-02-20T02:16:29.388Z,1014.87
2018-02-20T02:17:29.299Z,1014.89
2018-02-20T02:19:21.053Z,1014.92
2018-02-20T02:20:20.963Z,1014.94
2018-02-20T02:22:12.803Z,1014.91
2018-02-20T02:23:12.727Z,1014.91
2018-02-20T02:25:04.624Z,1014.85
2018-02-20T02:26:04.379Z,1014.84
2018-02-20T02:27:56.837Z,1014.86
2018-02-20T02:28:56.097Z,1014.85
2018-02-20T02:30:47.933Z,1014.81
2018-02-20T02:31:47.842Z,1014.86
2018-02-20T02:33:39.596Z,1014.85
2018-02-20T02:34:39.508Z,1014.84
2018-02-20T02:36:31.290Z,1014.86
2018-02-20T02:37:31.208Z,1014.87
2018-02-20T02:39:23.047Z,1014.85
2018-02-20T02:40:22.920Z,1014.80
2018-02-20T02:42:14.654Z,1014.80
2018-02-20T02:43:14.585Z,1014.83
2018-02-20T02:45:06.353Z,1014.81
2018-02-20T02:46:06.276Z,1014.83
2018-02-20T02:47:58.024Z,1014.82
2018-02-20T02:48:58.012Z,1014.83
2018-02-20T02:50:49.796Z,1014.82
2018-02-20T02:51:49.678Z,1014.83
2018-02-20T02:53:41.458Z,1014.87
2018-02-20T02:54:41.385Z,1014.81
2018-02-20T02:56:33.139Z,1014.82
2018-02-20T02:57:33.061Z,1014.85
2018-02-20T02:59:24.812Z,1014.85
2018-02-20T03:00:24.756Z,1014.85
2018-02-20T03:02:16.531Z,1014.85
2018-02-20T03:03:16.598Z,1014.81
2018-02-20T03:05:08.272Z,1014.82
2018-02-20T03:06:08.188Z,1014.80
2018-02-20T03:08:00.184Z,1014.80
2018-02-20T03:09:00.017Z,1014.80
2018-02-20T03:10:51.807Z,1014.79
2018-02-20T03:11:51.526Z,1014.80
2018-02-20T03:13:43.253Z,1014.76
2018-02-20T03:14:43.183Z,1014.78
2018-02-20T03:16:35.031Z,1014.79
2018-02-20T03:17:34.936Z,1014.74
2018-02-20T03:19:26.772Z,1014.75
2018-02-20T03:20:26.681Z,1014.73
2018-02-20T03:22:18.580Z,1014.74
2018-02-20T03:23:18.413Z,1014.73
2018-02-20T03:25:10.257Z,1014.76
2018-02-20T03:26:10.266Z,1014.76
2018-02-20T03:28:02.132Z,1014.72
2018-02-20T03:29:01.811Z,1014.78
2018-02-20T03:30:53.604Z,1014.72
2018-02-20T03:31:53.487Z,1014.74
2018-02-20T03:33:45.524Z,1014.77
2018-02-20T03:34:45.332Z,1014.74
2018-02-20T03:36:37.168Z,1014.73
2018-02-20T03:37:37.147Z,1014.74
2018-02-20T03:39:28.996Z,1014.71
2018-02-20T03:40:28.904Z,1014.73
2018-02-20T03:42:20.832Z,1014.69
2018-02-20T03:43:20.569Z,1014.73
2018-02-20T03:45:12.388Z,1014.69
2018-02-20T03:46:12.254Z,1014.67
2018-02-20T03:48:04.085Z,1014.68
2018-02-20T03:49:03.912Z,1014.67
2018-02-20T03:50:55.681Z,1014.71
2018-02-20T03:51:55.608Z,1014.70
2018-02-20T03:53:47.404Z,1014.71
2018-02-20T03:54:47.288Z,1014.74
2018-02-20T03:56:39.036Z,1014.70
2018-02-20T03:57:38.974Z,1014.72
2018-02-20T03:59:30.711Z,1014.73
2018-02-20T04:00:30.623Z,1014.74
2018-02-20T04:02:22.388Z,1014.72
2018-02-20T04:03:22.314Z,1014.70
2018-02-20T04:05:14.075Z,1014.70
2018-02-20T04:06:14.010Z,1014.69
2018-02-20T04:08:05.727Z,1014.75
2018-02-20T04:09:05.648Z,1014.74
2018-02-20T04:10:57.420Z,1014.72
2018-02-20T04:11:57.320Z,1014.72
2018-02-20T04:13:49.786Z,1014.72
2018-02-20T04:14:49.033Z,1014.75
2018-02-20T04:16:40.761Z,1014.72
2018-02-20T04:17:40.768Z,1014.70
2018-02-20T04:19:32.455Z,1014.71
2018-02-20T04:20:32.409Z,1014.69
2018-02-20T04:22:24.201Z,1014.75
2018-02-20T04:23:24.048Z,1014.70
2018-02-20T04:25:15.857Z,1014.72
2018-02-20T04:26:15.854Z,1014.74
2018-02-20T04:28:07.627Z,1014.74
2018-02-20T04:29:07.477Z,1014.68
2018-02-20T04:30:59.440Z,1014.69
2018-02-20T04:31:59.383Z,1014.71
2018-02-20T04:33:52.322Z,1014.69
2018-02-20T04:34:51.259Z,1014.70
2018-02-20T04:36:43.050Z,1014.71
2018-02-20T04:37:42.930Z,1014.71
2018-02-20T04:39:35.309Z,1014.71
2018-02-20T04:40:34.683Z,1014.71
2018-02-20T04:42:26.618Z,1014.71
2018-02-20T04:43:26.454Z,1014.69
2018-02-20T04:45:18.137Z,1014.71
2018-02-20T04:46:18.038Z,1014.74
2018-02-20T04:48:09.867Z,1014.74
2018-02-20T04:49:09.864Z,1014.76
2018-02-20T04:51:01.581Z,1014.77
2018-02-20T04:52:01.658Z,1014.77
2018-02-20T04:53:53.426Z,1014.77
2018-02-20T04:54:53.382Z,1014.74
2018-02-20T04:56:45.551Z,1014.81
2018-02-20T04:57:45.530Z,1014.80
2018-02-20T04:59:37.371Z,1014.76
2018-02-20T05:00:37.192Z,1014.86
2018-02-20T05:02:29.031Z,1014.83
2018-02-20T05:03:28.839Z,1014.81
2018-02-20T05:05:21.245Z,1014.79
2018-02-20T05:06:20.596Z,1014.85
2018-02-20T05:08:12.417Z,1014.78
2018-02-20T05:09:12.348Z,1014.76
2018-02-20T05:11:04.191Z,1014.75
2018-02-20T05:12:04.178Z,1014.77
2018-02-20T05:13:56.045Z,1014.73
2018-02-20T05:14:55.954Z,1014.73
2018-02-20T05:16:47.737Z,1014.81
2018-02-20T05:17:47.643Z,1014.77
2018-02-20T05:19:39.497Z,1014.78
2018-02-20T05:20:39.309Z,1014.84
2018-02-20T05:22:31.383Z,1014.81
2018-02-20T05:23:31.186Z,1014.84
2018-02-20T05:25:23.065Z,1014.85
2018-02-20T05:26:22.833Z,1014.87
2018-02-20T05:28:14.969Z,1014.87
2018-02-20T05:29:14.976Z,1014.84
2018-02-20T05:31:06.566Z,1014.90
2018-02-20T05:32:06.495Z,1014.92
2018-02-20T05:33:58.248Z,1014.97
2018-02-20T05:34:58.284Z,1014.93
2018-02-20T05:36:49.925Z,1014.95
2018-02-20T05:37:49.824Z,1014.94
2018-02-20T05:39:41.594Z,1014.95
2018-02-20T05:40:41.505Z,1014.94
2018-02-20T05:42:33.688Z,1014.92
2018-02-20T05:43:33.202Z,1014.94
2018-02-20T05:45:25.002Z,1014.92
2018-02-20T05:46:24.873Z,1014.96
2018-02-20T05:48:16.764Z,1014.92
2018-02-20T05:49:16.720Z,1014.92
2018-02-20T05:51:08.460Z,1014.87
2018-02-20T05:52:08.373Z,1014.93
2018-02-20T05:54:00.240Z,1014.95
2018-02-20T05:55:00.189Z,1014.93
2018-02-20T05:56:52.015Z,1014.96
2018-02-20T05:57:51.969Z,1014.93
2018-02-20T05:59:44.010Z,1014.90
2018-02-20T06:00:43.849Z,1014.91
2018-02-20T06:02:35.591Z,1014.96
2018-02-20T06:03:35.512Z,1014.96
2018-02-20T06:05:27.270Z,1014.96
2018-02-20T06:06:27.259Z,1014.96
2018-02-20T06:08:18.940Z,1014.98
2018-02-20T06:09:18.895Z,1014.96
2018-02-20T06:11:10.907Z,1014.97
2018-02-20T06:12:11.025Z,1014.97
2018-02-20T06:14:02.717Z,1015.00
2018-02-20T06:15:02.491Z,1014.97
2018-02-20T06:16:54.315Z,1014.99
2018-02-20T06:17:54.213Z,1015.09
2018-02-20T06:19:46.204Z,1015.06
2018-02-20T06:20:45.875Z,1015.05
2018-02-20T06:22:37.952Z,1015.05
2018-02-20T06:23:37.530Z,1015.05
2018-02-20T06:25:29.579Z,1015.08
2018-02-20T06:26:29.494Z,1015.05
2018-02-20T06:28:21.698Z,1015.09
2018-02-20T06:29:21.192Z,1015.11
2018-02-20T06:31:13.062Z,1015.09
2018-02-20T06:32:13.028Z,1015.07
2018-02-20T06:34:04.784Z,1015.08
2018-02-20T06:35:04.806Z,1015.07
2018-02-20T06:36:56.465Z,1015.08
2018-02-20T06:37:56.428Z,1015.05
2018-02-20T06:39:48.185Z,1015.02
2018-02-20T06:40:48.170Z,1015.09
2018-02-20T06:42:39.896Z,1015.06
2018-02-20T06:43:39.811Z,1015.07
2018-02-20T06:45:31.635Z,1015.08
2018-02-20T06:46:31.538Z,1015.10
2018-02-20T06:48:23.309Z,1015.10
2018-02-20T06:49:23.274Z,1015.09
2018-02-20T06:51:15.197Z,1015.13
2018-02-20T06:52:15.122Z,1015.11
2018-02-20T06:54:06.940Z,1015.18
2018-02-20T06:55:06.859Z,1015.22
2018-02-20T06:56:58.727Z,1015.19
2018-02-20T06:57:58.644Z,1015.17
2018-02-20T06:59:50.479Z,1015.20
2018-02-20T07:00:50.363Z,1015.20
2018-02-20T07:02:42.129Z,1015.25
2018-02-20T07:03:42.037Z,1015.25
2018-02-20T07:05:33.777Z,1015.28
2018-02-20T07:06:33.705Z,1015.31
2018-02-20T07:08:25.486Z,1015.33
2018-02-20T07:09:25.379Z,1015.34
2018-02-20T07:11:17.139Z,1015.36
2018-02-20T07:12:17.077Z,1015.37
2018-02-20T07:14:08.838Z,1015.35
2018-02-20T07:15:08.746Z,1015.33
2018-02-20T07:17:00.505Z,1015.37
2018-02-20T07:18:00.423Z,1015.38
2018-02-20T07:19:52.184Z,1015.38
2018-02-20T07:20:52.100Z,1015.38
2018-02-20T07:22:43.880Z,1015.45
2018-02-20T07:23:43.786Z,1015.44
2018-02-20T07:25:35.543Z,1015.49
2018-02-20T07:26:35.462Z,1015.54
2018-02-20T07:28:27.218Z,1015.51
2018-02-20T07:29:27.134Z,1015.52
2018-02-20T07:31:18.879Z,1015.57
2018-02-20T07:32:18.845Z,1015.53
2018-02-20T07:34:10.582Z,1015.60
2018-02-20T07:35:10.472Z,1015.66
2018-02-20T07:37:02.241Z,1015.57
2018-02-20T07:38:02.157Z,1015.64
2018-02-20T07:39:54.017Z,1015.74
2018-02-20T07:40:53.929Z,1015.72
2018-02-20T07:42:45.617Z,1015.77
2018-02-20T07:43:45.543Z,1015.73
2018-02-20T07:45:37.334Z,1015.70
2018-02-20T07:46:37.227Z,1015.72
2018-02-20T07:48:28.961Z,1015.72
2018-02-20T07:49:28.890Z,1015.72
2018-02-20T07:51:20.643Z,1015.71
2018-02-20T07:52:20.561Z,1015.70
2018-02-20T07:54:12.367Z,1015.82
2018-02-20T07:55:12.267Z,1015.82
2018-02-20T07:57:04.021Z,1015.80
2018-02-20T07:58:03.954Z,1015.76
2018-02-20T07:59:55.764Z,1015.81
2018-02-20T08:00:55.689Z,1015.77
2018-02-20T08:02:47.440Z,1015.79
2018-02-20T08:03:47.377Z,1015.74
2018-02-20T08:05:39.166Z,1015.85
2018-02-20T08:06:39.077Z,1015.87
2018-02-20T08:08:30.851Z,1015.94
2018-02-20T08:09:30.789Z,1015.91
2018-02-20T08:11:22.565Z,1016.01
2018-02-20T08:12:22.480Z,1016.05
2018-02-20T08:14:14.331Z,1015.98
2018-02-20T08:15:14.398Z,1015.98
2018-02-20T08:17:06.035Z,1016.06
2018-02-20T08:18:05.991Z,1016.04
2018-02-20T08:19:57.729Z,1015.90
2018-02-20T08:20:57.745Z,1015.90
2018-02-20T08:22:49.440Z,1015.93
2018-02-20T08:23:49.360Z,1015.94
2018-02-20T08:25:41.222Z,1015.90
2018-02-20T08:26:41.083Z,1015.92
2018-02-20T08:28:32.934Z,1015.93
2018-02-20T08:29:32.892Z,1015.93
2018-02-20T08:31:24.617Z,1015.88
2018-02-20T08:32:24.617Z,1015.98
2018-02-20T08:34:16.264Z,1015.92
2018-02-20T08:35:16.232Z,1015.86
2018-02-20T08:37:07.947Z,1015.96
2018-02-20T08:38:07.875Z,1016.01
2018-02-20T08:39:59.627Z,1016.00
2018-02-20T08:40:59.600Z,1015.96
2018-02-20T08:42:51.341Z,1015.97
2018-02-20T08:43:51.262Z,1015.97
2018-02-20T08:45:43.040Z,1016.05
2018-02-20T08:46:42.951Z,1016.01
2018-02-20T08:48:34.790Z,1016.01
2018-02-20T08:49:34.777Z,1016.04
2018-02-20T08:51:26.380Z,1016.06
2018-02-20T08:52:26.336Z,1016.10
2018-02-20T08:54:18.093Z,1016.12
2018-02-20T08:55:18.013Z,1016.16
2018-02-20T08:57:09.809Z,1016.25
2018-02-20T08:58:09.716Z,1016.25
2018-02-20T09:00:01.501Z,1016.29
2018-02-20T09:01:01.424Z,1016.35
2018-02-20T09:02:53.393Z,1016.38
2018-02-20T09:03:53.142Z,1016.41
2018-02-20T09:05:45.154Z,1016.43
2018-02-20T09:06:45.020Z,1016.45
2018-02-20T09:08:36.740Z,1016.49
2018-02-20T09:09:36.665Z,1016.56
2018-02-20T09:11:28.556Z,1016.65
2018-02-20T09:12:28.388Z,1016.52
2018-02-20T09:14:20.302Z,1016.47
2018-02-20T09:15:20.107Z,1016.41
2018-02-20T09:17:11.931Z,1016.40
2018-02-20T09:18:11.873Z,1016.37
2018-02-20T09:20:03.697Z,1016.30
2018-02-20T09:21:03.573Z,1016.32
2018-02-20T09:22:55.356Z,1016.29
2018-02-20T09:23:55.279Z,1016.24
2018-02-20T09:25:47.082Z,1016.16
2018-02-20T09:26:46.999Z,1016.08
2018-02-20T09:28:38.917Z,1016.03
2018-02-20T09:29:38.712Z,1016.06
2018-02-20T09:31:30.589Z,1016.07
2018-02-20T09:32:30.415Z,1016.07
2018-02-20T09:34:22.238Z,1016.03
2018-02-20T09:35:22.256Z,1016.02
2018-02-20T09:37:13.937Z,1015.98
2018-02-20T09:38:13.877Z,1015.97
2018-02-20T09:40:05.663Z,1015.95
2018-02-20T09:41:05.592Z,1015.93
2018-02-20T09:42:57.401Z,1015.93
2018-02-20T09:43:57.348Z,1015.98
2018-02-20T09:45:49.135Z,1016.02
2018-02-20T09:46:49.067Z,1015.98
2018-02-20T09:48:40.831Z,1016.02
2018-02-20T09:49:40.773Z,1016.03
2018-02-20T09:51:32.600Z,1016.06
2018-02-20T09:52:32.737Z,1016.07
2018-02-20T09:54:24.409Z,1016.07
2018-02-20T09:55:24.365Z,1016.04
2018-02-20T09:57:16.318Z,1016.02
2018-02-20T09:58:16.252Z,1016.03
2018-02-20T10:00:08.073Z,1016.02
2018-02-20T10:01:07.947Z,1016.03
2018-02-20T10:02:59.736Z,1016.00
2018-02-20T10:03:59.672Z,1015.98
2018-02-20T10:05:51.468Z,1015.99
2018-02-20T10:06:51.376Z,1016.03
2018-02-20T10:08:43.227Z,1016.00
2018-02-20T10:09:43.096Z,1016.03
2018-02-20T10:11:34.934Z,1016.01
2018-02-20T10:12:34.899Z,1015.99
2018-02-20T10:14:26.624Z,1016.04
2018-02-20T10:15:26.564Z,1016.03
2018-02-20T10:17:18.367Z,1016.07
2018-02-20T10:18:18.304Z,1016.01
2018-02-20T10:20:10.104Z,1016.06
2018-02-20T10:21:10.122Z,1015.95
2018-02-20T10:23:02.102Z,1016.04
2018-02-20T10:24:01.751Z,1015.98
2018-02-20T10:25:53.537Z,1015.98
2018-02-20T10:26:53.475Z,1015.97
2018-02-20T10:28:45.301Z,1015.98
2018-02-20T10:29:45.197Z,1015.97
2018-02-20T10:31:37.069Z,1015.96
2018-02-20T10:32:36.966Z,1015.93
2018-02-20T10:34:28.889Z,1015.92
2018-02-20T10:35:28.664Z,1015.92
2018-02-20T10:37:20.620Z,1015.90
2018-02-20T10:39:32.211Z,1015.87
2018-02-20T10:41:44.046Z,1015.85
2018-02-20T10:42:44.050Z,1015.84
2018-02-20T10:44:35.745Z,1015.78
2018-02-20T10:45:35.726Z,1015.86
2018-02-20T10:47:27.600Z,1015.81
2018-02-20T10:48:27.342Z,1015.85
2018-02-20T10:50:19.195Z,1015.84
2018-02-20T10:51:19.114Z,1015.78
2018-02-20T10:53:10.909Z,1015.75
2018-02-20T10:54:10.827Z,1015.76
2018-02-20T10:56:02.771Z,1015.71
2018-02-20T10:57:02.586Z,1015.70
2018-02-20T10:58:54.352Z,1015.69
2018-02-20T10:59:54.256Z,1015.71
2018-02-20T11:01:46.027Z,1015.68
2018-02-20T11:02:45.977Z,1015.69
2018-02-20T11:04:37.879Z,1015.73
2018-02-20T11:05:37.669Z,1015.68
2018-02-20T11:07:29.421Z,1015.74
2018-02-20T11:08:29.379Z,1015.68
2018-02-20T11:10:21.136Z,1015.70
2018-02-20T11:11:21.058Z,1015.69
2018-02-20T11:13:12.842Z,1015.68
2018-02-20T11:14:12.761Z,1015.65
2018-02-20T11:16:04.591Z,1015.67
2018-02-20T11:17:04.458Z,1015.65
2018-02-20T11:18:56.289Z,1015.65
2018-02-20T11:19:56.177Z,1015.61
2018-02-20T11:21:47.950Z,1015.66
2018-02-20T11:22:47.910Z,1015.65
2018-02-20T11:24:39.707Z,1015.63
2018-02-20T11:25:39.608Z,1015.62
2018-02-20T11:27:31.412Z,1015.64
2018-02-20T11:28:31.289Z,1015.61
2018-02-20T11:30:23.097Z,1015.64
2018-02-20T11:31:22.986Z,1015.61
2018-02-20T11:33:14.749Z,1015.58
2018-02-20T11:34:14.674Z,1015.66
2018-02-20T11:36:06.452Z,1015.60
2018-02-20T11:37:06.375Z,1015.58
2018-02-20T11:38:58.347Z,1015.61
2018-02-20T11:39:58.183Z,1015.62
2018-02-20T11:41:49.922Z,1015.58
2018-02-20T11:42:49.845Z,1015.57
2018-02-20T11:44:41.765Z,1015.60
2018-02-20T11:45:41.634Z,1015.59
2018-02-20T11:47:33.371Z,1015.57
2018-02-20T11:48:33.306Z,1015.53
2018-02-20T11:50:25.107Z,1015.56
2018-02-20T11:51:25.013Z,1015.55
2018-02-20T11:53:16.767Z,1015.51
2018-02-20T11:54:16.697Z,1015.53
2018-02-20T11:56:08.525Z,1015.48
2018-02-20T11:57:08.418Z,1015.46
2018-02-20T11:59:00.210Z,1015.45
2018-02-20T12:00:00.157Z,1015.47
2018-02-20T12:01:51.860Z,1015.41
2018-02-20T12:02:51.792Z,1015.42
2018-02-20T12:04:43.707Z,1015.50
2018-02-20T12:05:43.643Z,1015.44
2018-02-20T12:07:35.446Z,1015.46
2018-02-20T12:08:35.365Z,1015.46
2018-02-20T12:10:27.184Z,1015.47
2018-02-20T12:11:27.053Z,1015.36
2018-02-20T12:13:18.813Z,1015.47
2018-02-20T12:14:18.742Z,1015.52
2018-02-20T12:16:10.499Z,1015.48
2018-02-20T12:17:10.617Z,1015.53
2018-02-20T12:19:02.190Z,1015.49
2018-02-20T12:20:02.129Z,1015.46
2018-02-20T12:21:53.883Z,1015.46
2018-02-20T12:22:53.803Z,1015.49
2018-02-20T12:24:45.556Z,1015.48
2018-02-20T12:25:45.481Z,1015.41
2018-02-20T12:27:37.247Z,1015.44
2018-02-20T12:28:37.173Z,1015.41
2018-02-20T12:30:28.943Z,1015.41
2018-02-20T12:31:28.875Z,1015.48
2018-02-20T12:33:20.646Z,1015.47
2018-02-20T12:34:20.571Z,1015.46
2018-02-20T12:36:12.313Z,1015.47
2018-02-20T12:37:12.242Z,1015.45
2018-02-20T12:39:04.047Z,1015.49
2018-02-20T12:40:03.971Z,1015.46
2018-02-20T12:41:55.736Z,1015.54
2018-02-20T12:42:55.651Z,1015.56
2018-02-20T12:44:47.409Z,1015.53
2018-02-20T12:45:47.346Z,1015.58
2018-02-20T12:47:39.117Z,1015.53
2018-02-20T12:48:39.040Z,1015.53
2018-02-20T12:50:30.792Z,1015.55
2018-02-20T12:51:30.719Z,1015.53
2018-02-20T12:53:22.506Z,1015.60
2018-02-20T12:54:22.426Z,1015.59
2018-02-20T12:56:14.198Z,1015.55
2018-02-20T12:57:14.130Z,1015.56
2018-02-20T12:59:05.953Z,1015.54
2018-02-20T13:00:05.817Z,1015.51
2018-02-20T13:01:57.568Z,1015.55
2018-02-20T13:02:57.496Z,1015.57
2018-02-20T13:04:49.270Z,1015.53
2018-02-20T13:05:49.185Z,1015.55
2018-02-20T13:07:40.957Z,1015.55
2018-02-20T13:08:40.874Z,1015.53
2018-02-20T13:10:32.789Z,1015.50
2018-02-20T13:11:32.561Z,1015.56
2018-02-20T13:13:24.349Z,1015.60
2018-02-20T13:14:24.264Z,1015.52
2018-02-20T13:16:16.001Z,1015.60
2018-02-20T13:17:15.934Z,1015.60
2018-02-20T13:19:07.706Z,1015.60
2018-02-20T13:20:07.631Z,1015.60
2018-02-20T13:21:59.371Z,1015.54
2018-02-20T13:22:59.308Z,1015.57
2018-02-20T13:24:51.120Z,1015.60
2018-02-20T13:25:51.027Z,1015.57
2018-02-20T13:27:42.804Z,1015.57
2018-02-20T13:28:42.725Z,1015.56
2018-02-20T13:30:34.511Z,1015.56
2018-02-20T13:31:34.433Z,1015.55
2018-02-20T13:33:26.203Z,1015.53
2018-02-20T13:34:26.121Z,1015.57
2018-02-20T13:36:17.882Z,1015.51
2018-02-20T13:37:17.810Z,1015.53
2018-02-20T13:39:09.574Z,1015.59
2018-02-20T13:40:09.513Z,1015.52
2018-02-20T13:42:01.248Z,1015.60
2018-02-20T13:43:01.183Z,1015.60
2018-02-20T13:44:52.994Z,1015.64
2018-02-20T13:45:52.860Z,1015.69
2018-02-20T13:47:44.628Z,1015.73
2018-02-20T13:48:44.569Z,1015.71
2018-02-20T13:50:36.310Z,1015.72
2018-02-20T13:51:36.241Z,1015.77
2018-02-20T13:53:28.012Z,1015.77
2018-02-20T13:54:27.952Z,1015.80
2018-02-20T13:56:19.699Z,1015.78
2018-02-20T13:57:19.629Z,1015.77
2018-02-20T13:59:11.403Z,1015.77
2018-02-20T14:00:11.334Z,1015.75
2018-02-20T14:02:03.106Z,1015.77
2018-02-20T14:03:03.019Z,1015.85
2018-02-20T14:04:55.005Z,1015.78
2018-02-20T14:05:54.727Z,1015.77
2018-02-20T14:07:46.658Z,1015.76
2018-02-20T14:08:46.452Z,1015.76
2018-02-20T14:10:38.296Z,1015.77
2018-02-20T14:11:38.184Z,1015.81
2018-02-20T14:13:29.919Z,1015.78
2018-02-20T14:14:29.853Z,1015.74
2018-02-20T14:16:21.631Z,1015.73
2018-02-20T14:17:21.570Z,1015.71
2018-02-20T14:19:13.413Z,1015.72
2018-02-20T14:20:13.344Z,1015.71
2018-02-20T14:22:05.133Z,1015.69
2018-02-20T14:23:05.067Z,1015.61
2018-02-20T14:24:56.993Z,1015.71
2018-02-20T14:25:56.753Z,1015.65
2018-02-20T14:27:48.593Z,1015.72
2018-02-20T14:28:48.509Z,1015.73
2018-02-20T14:30:40.273Z,1015.69
2018-02-20T14:31:40.181Z,1015.65
2018-02-20T14:33:31.943Z,1015.72
2018-02-20T14:34:31.869Z,1015.66
2018-02-20T14:36:23.647Z,1015.70
2018-02-20T14:37:23.554Z,1015.71
2018-02-20T14:39:15.295Z,1015.68
2018-02-20T14:40:15.225Z,1015.71
2018-02-20T14:42:07.039Z,1015.75
2018-02-20T14:43:06.955Z,1015.71
2018-02-20T14:44:58.706Z,1015.69
2018-02-20T14:45:58.636Z,1015.73
2018-02-20T14:47:50.393Z,1015.62
2018-02-20T14:48:50.339Z,1015.67
2018-02-20T14:50:42.053Z,1015.70
2018-02-20T14:51:41.983Z,1015.69
2018-02-20T14:53:33.765Z,1015.71
2018-02-20T14:54:33.689Z,1015.74
2018-02-20T14:56:25.495Z,1015.76
2018-02-20T14:57:25.371Z,1015.75
2018-02-20T14:59:17.113Z,1015.75
2018-02-20T15:00:17.045Z,1015.80
2018-02-20T15:02:08.822Z,1015.78
2018-02-20T15:03:08.752Z,1015.77
2018-02-20T15:05:00.482Z,1015.76
2018-02-20T15:06:00.443Z,1015.76
2018-02-20T15:07:52.172Z,1015.76
2018-02-20T15:08:52.102Z,1015.76
2018-02-20T15:10:43.831Z,1015.72
2018-02-20T15:11:43.762Z,1015.76
2018-02-20T15:13:35.554Z,1015.76
2018-02-20T15:14:35.452Z,1015.83
2018-02-20T15:16:27.194Z,1015.81
2018-02-20T15:17:27.109Z,1015.79
2018-02-20T15:19:18.889Z,1015.80
2018-02-20T15:20:18.804Z,1015.85
2018-02-20T15:22:10.571Z,1015.84
2018-02-20T15:23:10.494Z,1015.81
2018-02-20T15:25:02.251Z,1015.82
2018-02-20T15:26:02.173Z,1015.85
2018-02-20T15:27:53.929Z,1015.88
2018-02-20T15:28:53.850Z,1015.87
2018-02-20T15:30:45.608Z,1015.89
2018-02-20T15:31:45.552Z,1015.88
2018-02-20T15:33:37.307Z,1015.90
2018-02-20T15:34:37.232Z,1015.87
2018-02-20T15:36:28.960Z,1015.86
2018-02-20T15:37:28.899Z,1015.89
2018-02-20T15:39:20.642Z,1015.95
2018-02-20T15:40:20.569Z,1015.95
2018-02-20T15:42:12.313Z,1015.98
2018-02-20T15:43:12.247Z,1015.93
2018-02-20T15:45:04.031Z,1015.98
2018-02-20T15:46:03.947Z,1016.00
2018-02-20T15:47:55.698Z,1016.02
2018-02-20T15:48:55.634Z,1015.99
2018-02-20T15:50:47.391Z,1015.98
2018-02-20T15:51:47.332Z,1015.99
2018-02-20T15:53:39.077Z,1015.99
2018-02-20T15:54:39.006Z,1015.99
2018-02-20T15:56:30.776Z,1016.06
2018-02-20T15:57:30.696Z,1016.07
2018-02-20T15:59:22.450Z,1016.05
2018-02-20T16:00:22.369Z,1016.11
2018-02-20T16:02:14.137Z,1016.09
2018-02-20T16:03:14.052Z,1016.08
2018-02-20T16:05:05.806Z,1016.13
2018-02-20T16:06:05.733Z,1016.10
2018-02-20T16:07:57.465Z,1016.15
2018-02-20T16:08:57.394Z,1016.15
2018-02-20T16:10:49.201Z,1016.11
2018-02-20T16:11:49.076Z,1016.18
2018-02-20T16:13:40.836Z,1016.15
2018-02-20T16:14:40.750Z,1016.18
2018-02-20T16:16:32.950Z,1016.15
2018-02-20T16:17:32.520Z,1016.16
2018-02-20T16:19:24.205Z,1016.17
2018-02-20T16:20:24.138Z,1016.18
2018-02-20T16:22:16.030Z,1016.22
2018-02-20T16:23:15.840Z,1016.20
2018-02-20T16:25:07.581Z,1016.21
2018-02-20T16:26:07.516Z,1016.26
2018-02-20T16:27:59.307Z,1016.25
2018-02-20T16:28:59.187Z,1016.25
2018-02-20T16:30:50.972Z,1016.30
2018-02-20T16:31:50.864Z,1016.34
2018-02-20T16:33:42.618Z,1016.33
2018-02-20T16:34:42.542Z,1016.31
2018-02-20T16:36:34.310Z,1016.34
2018-02-20T16:37:34.226Z,1016.37
2018-02-20T16:39:25.978Z,1016.36
2018-02-20T16:40:25.898Z,1016.36
2018-02-20T16:42:17.689Z,1016.37
2018-02-20T16:43:17.607Z,1016.40
2018-02-20T16:45:09.365Z,1016.39
2018-02-20T16:46:09.280Z,1016.38
2018-02-20T16:48:01.033Z,1016.39
2018-02-20T16:49:00.963Z,1016.42
2018-02-20T16:50:52.700Z,1016.46
2018-02-20T16:51:52.612Z,1016.47
2018-02-20T16:53:44.358Z,1016.44
2018-02-20T16:54:44.290Z,1016.44
2018-02-20T16:56:36.043Z,1016.49
2018-02-20T16:57:35.960Z,1016.46
2018-02-20T16:59:27.709Z,1016.50
2018-02-20T17:00:27.631Z,1016.52
2018-02-20T17:02:19.399Z,1016.50
2018-02-20T17:03:19.317Z,1016.56
2018-02-20T17:05:11.119Z,1016.51
2018-02-20T17:06:11.000Z,1016.52
2018-02-20T17:08:02.740Z,1016.55
2018-02-20T17:09:02.677Z,1016.57
2018-02-20T17:10:54.439Z,1016.60
2018-02-20T17:11:54.381Z,1016.60
2018-02-20T17:13:46.088Z,1016.56
2018-02-20T17:14:46.027Z,1016.61
2018-02-20T17:16:37.776Z,1016.62
2018-02-20T17:17:37.699Z,1016.68
2018-02-20T17:19:29.441Z,1016.70